Time;durP1;ratioP1;P1;durP2;ratioP2;P2;SDS_P1;SDS_P2;PMS_P1;PMS_P2;Temp;Humidity;BMP_temperature;BMP_pressure;BME280_temperature;BME280_humidity;BME280_pressure;Samples;Min_cycle;Max_cycle;Signal;HPM_P1;HPM_P2
2022/10/06 00:02:11;;;;;;;7.35;4.80;;;;;;;15.69;90.48;100644.37;2996443;76;21036;-94
2022/10/06 00:06:16;;;;;;;5.78;3.65;;;;;;;15.72;90.36;100645.41;3063762;76;20995;-94
2022/10/06 00:10:18;;;;;;;3.72;3.15;;;;;;;15.73;89.92;100649.81;3063161;76;21089;-96
2022/10/06 00:14:19;;;;;;;6.80;4.15;;;;;;;15.75;89.70;100651.84;3048538;76;20947;-96
2022/10/06 00:18:20;;;;;;;3.87;3.45;;;;;;;15.76;89.62;100652.67;2982699;77;20963;-95
2022/10/06 00:22:22;;;;;;;6.55;3.25;;;;;;;15.75;89.68;100646.48;3013529;76;20982;-95
2022/10/06 00:26:23;;;;;;;5.45;3.65;;;;;;;15.79;89.57;100650.53;3014147;76;21034;-91
2022/10/06 00:30:27;;;;;;;6.65;2.70;;;;;;;15.78;89.59;100647.99;3033954;76;20971;-94
2022/10/06 00:34:28;;;;;;;4.65;3.08;;;;;;;15.80;89.47;100657.59;3038071;76;21038;-95
2022/10/06 00:38:30;;;;;;;4.22;2.55;;;;;;;15.80;89.18;100653.56;3005462;76;20971;-93
2022/10/06 00:42:32;;;;;;;2.85;2.55;;;;;;;15.84;89.16;100650.92;3029119;77;21502;-93
2022/10/06 00:46:47;;;;;;;4.78;3.60;;;;;;;15.89;88.94;100653.67;3054269;76;21041;-95
2022/10/06 00:50:53;;;;;;;3.08;2.77;;;;;;;15.91;88.81;100658.38;3001041;76;20995;-94
2022/10/06 00:54:57;;;;;;;5.00;3.15;;;;;;;15.87;88.99;100659.17;3051804;76;20979;-95
2022/10/06 00:58:59;;;;;;;6.00;3.42;;;;;;;15.84;89.17;100662.99;3049077;76;20963;-95
2022/10/06 01:03:17;;;;;;;3.25;1.92;;;;;;;15.87;89.30;100664.54;3058701;76;20959;-93
2022/10/06 01:07:21;;;;;;;4.62;3.20;;;;;;;15.90;89.35;100664.74;3048683;76;21057;-93
2022/10/06 01:11:22;;;;;;;5.15;2.50;;;;;;;15.94;89.12;100667.49;2981345;76;21076;-96
2022/10/06 01:15:27;;;;;;;2.95;2.58;;;;;;;15.92;88.99;100662.78;2993372;77;21647;-95
2022/10/06 01:19:37;;;;;;;2.50;2.08;;;;;;;15.91;89.15;100671.80;2998478;77;21061;-94
2022/10/06 01:23:39;;;;;;;3.60;2.50;;;;;;;15.87;89.17;100675.27;2983341;78;21040;-95
2022/10/06 01:27:45;;;;;;;4.87;3.47;;;;;;;15.88;89.27;100673.41;3023097;77;21001;-95
2022/10/06 01:31:47;;;;;;;2.58;2.27;;;;;;;15.88;89.04;100676.95;3016430;77;21061;-94
2022/10/06 01:35:51;;;;;;;3.70;3.12;;;;;;;15.84;89.03;100681.77;2988582;77;21006;-95
2022/10/06 01:39:53;;;;;;;4.92;2.55;;;;;;;15.81;89.22;100684.75;3013952;77;20986;-94
2022/10/06 01:43:54;;;;;;;3.17;2.87;;;;;;;15.75;89.55;100685.37;3022185;77;20985;-95
2022/10/06 01:47:56;;;;;;;4.10;2.65;;;;;;;15.70;89.94;100683.61;2990075;78;20978;-94
2022/10/06 01:51:59;;;;;;;4.65;2.62;;;;;;;15.66;90.14;100685.77;2988435;77;21060;-95
2022/10/06 01:56:00;;;;;;;7.65;5.00;;;;;;;15.65;90.33;100688.58;3017171;77;21524;-96
2022/10/06 02:00:02;;;;;;;3.67;2.75;;;;;;;15.65;90.27;100689.92;3029517;77;21060;-94
2022/10/06 02:04:03;;;;;;;2.77;2.50;;;;;;;15.63;90.46;100689.23;3027453;77;20989;-95
2022/10/06 02:08:05;;;;;;;16.57;3.15;;;;;;;15.61;90.67;100701.95;2953086;77;20959;-93
2022/10/06 02:12:06;;;;;;;4.25;2.95;;;;;;;15.55;91.34;100697.53;2969042;79;20994;-96
2022/10/06 02:16:09;;;;;;;5.50;2.45;;;;;;;15.48;91.86;100692.91;2927759;79;21049;-94
2022/10/06 02:20:10;;;;;;;4.45;3.58;;;;;;;15.40;92.33;100698.49;2987866;78;21115;-95
2022/10/06 02:24:12;;;;;;;3.20;2.67;;;;;;;15.41;92.55;100701.52;2966558;78;21014;-96
2022/10/06 02:28:15;;;;;;;6.20;2.30;;;;;;;15.41;93.23;100702.86;2996303;79;21006;-95
2022/10/06 02:32:16;;;;;;;3.65;2.67;;;;;;;15.46;93.92;100708.30;2988238;77;20990;-96
2022/10/06 02:36:18;;;;;;;5.33;3.20;;;;;;;15.42;94.87;100712.59;2991742;79;21068;-94
2022/10/06 02:40:20;;;;;;;4.35;2.33;;;;;;;15.39;95.23;100718.77;2985097;78;21505;-96
2022/10/06 02:44:23;;;;;;;4.78;2.60;;;;;;;15.42;94.89;100719.29;2997923;77;21034;-95
2022/10/06 02:48:27;;;;;;;3.98;2.83;;;;;;;15.42;95.38;100719.80;2980845;78;21088;-95
2022/10/06 02:52:33;;;;;;;5.50;2.92;;;;;;;15.44;95.50;100728.54;2972746;79;21093;-94
2022/10/06 02:56:36;;;;;;;4.35;3.33;;;;;;;15.52;95.53;100735.85;2981226;79;21025;-94
2022/10/06 03:00:37;;;;;;;4.80;3.58;;;;;;;15.53;95.83;100729.50;2986138;79;21037;-93
2022/10/06 03:04:39;;;;;;;5.10;2.87;;;;;;;15.55;95.47;100737.75;2936804;77;21022;-93
2022/10/06 03:08:41;;;;;;;3.33;2.15;;;;;;;15.54;95.47;100746.79;2952104;79;21607;-96
2022/10/06 03:12:42;;;;;;;5.08;2.17;;;;;;;15.52;95.77;100751.42;2956196;78;21014;-95
2022/10/06 03:16:43;;;;;;;6.55;2.75;;;;;;;15.48;95.89;100750.03;2937684;80;21014;-92
2022/10/06 03:20:45;;;;;;;6.03;2.42;;;;;;;15.45;96.14;100759.72;2943687;78;21033;-93
2022/10/06 03:24:46;;;;;;;3.17;2.83;;;;;;;15.44;96.20;100767.92;2967788;79;20991;-94
2022/10/06 03:28:48;;;;;;;5.97;3.42;;;;;;;15.36;95.57;100765.45;2966521;79;20998;-94
2022/10/06 03:32:51;;;;;;;4.95;3.22;;;;;;;15.32;95.84;100769.91;2940212;79;21039;-94
2022/10/06 03:36:53;;;;;;;5.22;2.92;;;;;;;15.18;96.80;100770.73;2936357;80;21038;-94
2022/10/06 03:41:05;;;;;;;3.95;3.50;;;;;;;15.12;97.19;100779.33;2929561;78;21043;-94
2022/10/06 03:45:08;;;;;;;6.12;3.85;;;;;;;15.14;97.35;100785.41;2991296;78;21009;-95
2022/10/06 03:49:10;;;;;;;6.67;3.75;;;;;;;15.17;97.31;100792.30;2963853;79;21105;-95
2022/10/06 03:53:11;;;;;;;7.58;3.90;;;;;;;15.15;97.34;100800.50;2947302;79;22076;-95
2022/10/06 03:57:12;;;;;;;8.63;3.92;;;;;;;15.12;97.52;100798.08;2868702;78;21026;-94
2022/10/06 04:01:21;;;;;;;7.62;3.87;;;;;;;15.07;98.01;100802.55;2922188;80;21160;-93
2022/10/06 04:05:23;;;;;;;5.12;3.92;;;;;;;15.04;98.07;100800.64;2953947;78;21083;-94
2022/10/06 04:09:24;;;;;;;7.00;3.85;;;;;;;14.99;98.21;100801.92;2967185;78;21037;-95
2022/10/06 04:13:25;;;;;;;3.70;3.22;;;;;;;14.99;98.36;100803.26;2956366;78;21016;-93
2022/10/06 04:17:26;;;;;;;3.98;3.62;;;;;;;15.05;98.15;100817.06;2965776;77;22159;-94
2022/10/06 04:21:30;;;;;;;6.15;3.52;;;;;;;15.07;97.63;100812.41;2932889;78;21033;-94
2022/10/06 04:25:32;;;;;;;8.70;4.83;;;;;;;15.07;97.21;100824.46;2930681;78;21171;-96
2022/10/06 04:29:34;;;;;;;6.65;3.17;;;;;;;15.06;97.17;100818.75;2930729;78;21025;-95
2022/10/06 04:33:36;;;;;;;5.28;3.02;;;;;;;15.00;97.40;100825.52;2954927;78;21013;-94
2022/10/06 04:37:38;;;;;;;6.03;3.65;;;;;;;14.93;98.19;100825.23;2954134;78;21033;-94
2022/10/06 04:41:41;;;;;;;11.38;3.87;;;;;;;14.86;98.60;100830.81;2954699;78;21065;-94
2022/10/06 04:45:42;;;;;;;5.28;4.60;;;;;;;14.83;98.88;100839.13;2984779;78;21580;-94
2022/10/06 04:49:44;;;;;;;6.17;4.85;;;;;;;14.84;98.75;100845.70;2905207;78;21073;-93
2022/10/06 04:53:47;;;;;;;6.62;4.30;;;;;;;14.90;98.72;100848.29;2977804;78;21025;-95
2022/10/06 04:57:49;;;;;;;5.28;2.90;;;;;;;14.97;98.13;100854.80;2962137;79;20998;-93
2022/10/06 05:01:50;;;;;;;5.90;4.45;;;;;;;14.96;97.68;100853.10;2939865;78;21063;-93
2022/10/06 05:05:51;;;;;;;5.62;3.00;;;;;;;14.90;98.56;100855.49;2933550;78;21022;-94
2022/10/06 05:09:53;;;;;;;3.35;2.42;;;;;;;14.80;100.00;100863.02;2957311;78;21056;-94
2022/10/06 05:13:56;;;;;;;5.95;3.92;;;;;;;14.81;100.00;100870.06;2981188;77;21064;-94
2022/10/06 05:17:57;;;;;;;5.92;4.15;;;;;;;14.81;100.00;100864.70;2994167;78;21022;-95
2022/10/06 05:21:58;;;;;;;4.62;2.25;;;;;;;14.87;100.00;100870.00;2995770;78;21502;-95
2022/10/06 05:26:00;;;;;;;3.33;1.92;;;;;;;14.92;100.00;100867.73;2991983;77;20998;-93
2022/10/06 05:30:02;;;;;;;3.80;2.87;;;;;;;15.04;100.00;100876.99;2989298;78;21521;-94
2022/10/06 05:34:04;;;;;;;4.87;3.02;;;;;;;15.16;100.00;100890.61;2970891;78;21093;-94
2022/10/06 05:38:05;;;;;;;8.43;3.25;;;;;;;15.35;100.00;100895.11;2956709;79;21007;-94
2022/10/06 05:42:06;;;;;;;4.67;3.15;;;;;;;15.56;100.00;100907.02;2950953;78;21018;-94
2022/10/06 05:46:16;;;;;;;3.85;3.42;;;;;;;15.69;99.75;100918.77;2946752;79;21041;-94
2022/10/06 05:50:17;;;;;;;15.30;3.33;;;;;;;15.83;100.00;100917.98;2983392;78;21022;-95
2022/10/06 05:54:19;;;;;;;5.90;3.22;;;;;;;16.10;100.00;100929.79;2994503;79;21017;-94
2022/10/06 05:58:20;;;;;;;6.42;4.17;;;;;;;16.39;99.25;100937.73;2965255;78;21018;-94
2022/10/06 06:02:21;;;;;;;5.35;3.42;;;;;;;16.51;97.17;100945.61;2988000;78;21041;-95
2022/10/06 06:06:30;;;;;;;3.75;3.45;;;;;;;16.51;96.72;100955.83;2888487;79;20994;-93
2022/10/06 06:10:32;;;;;;;3.25;2.92;;;;;;;16.52;96.72;100956.69;2955994;78;28793;-94
2022/10/06 06:18:52;;;;;;;11.10;3.33;;;;;;;16.62;97.31;100961.50;2972694;79;21014;-94
2022/10/06 06:22:54;;;;;;;4.58;3.02;;;;;;;16.70;97.77;100971.02;2967846;77;21061;-94
2022/10/06 06:26:55;;;;;;;3.30;2.85;;;;;;;17.04;99.61;100970.92;2997404;77;21131;-94
2022/10/06 06:31:09;;;;;;;3.20;2.72;;;;;;;17.46;99.80;100976.18;2990174;78;21010;-93
2022/10/06 06:35:11;;;;;;;9.75;2.67;;;;;;;17.78;98.37;100984.20;2995833;78;21038;-95
2022/10/06 06:39:14;;;;;;;5.42;2.90;;;;;;;17.91;96.10;100985.64;2996167;78;21010;-94
2022/10/06 06:43:16;;;;;;;5.80;2.90;;;;;;;17.95;96.30;100997.27;3000183;79;21017;-95
2022/10/06 06:47:17;;;;;;;3.25;2.95;;;;;;;17.96;95.94;101001.64;2992933;78;21014;-95
2022/10/06 06:51:21;;;;;;;2.90;2.60;;;;;;;17.96;95.79;101013.75;2937366;79;20997;-95
2022/10/06 06:55:23;;;;;;;6.67;3.37;;;;;;;17.97;96.84;101012.75;3000397;77;21057;-94
2022/10/06 06:59:24;;;;;;;2.33;1.70;;;;;;;18.06;96.80;101014.20;2989775;77;21033;-94
2022/10/06 07:03:28;;;;;;;4.08;2.17;;;;;;;18.15;96.82;101023.19;2983845;77;21560;-95
2022/10/06 07:07:29;;;;;;;1.85;1.67;;;;;;;18.23;95.70;101031.30;3000596;77;21100;-94
2022/10/06 07:11:38;;;;;;;3.27;1.82;;;;;;;18.27;95.16;101027.28;2984559;78;21041;-95
2022/10/06 07:28:41;;;;;;;2.22;1.67;;;;;;;18.67;92.84;101054.14;2988014;79;21052;-95
2022/10/06 07:32:43;;;;;;;3.90;2.42;;;;;;;18.78;91.85;101057.55;2994054;78;21392;-94
2022/10/06 07:36:47;;;;;;;3.27;1.80;;;;;;;18.85;91.46;101061.28;2917055;78;20994;-95
2022/10/06 07:40:54;;;;;;;3.25;2.33;;;;;;;18.95;91.56;101071.45;2985391;78;21094;-95
2022/10/06 07:49:16;;;;;;;3.52;2.80;;;;;;;19.12;91.50;101083.16;2970502;78;21003;-94
2022/10/06 07:53:18;;;;;;;5.80;2.30;;;;;;;19.23;90.71;101082.02;2968579;78;21049;-95
2022/10/06 07:57:20;;;;;;;5.03;2.58;;;;;;;19.25;90.53;101090.78;2995311;78;20958;-94
2022/10/06 08:01:24;;;;;;;3.60;2.05;;;;;;;19.03;90.47;101098.98;2946917;78;21011;-95
2022/10/06 08:05:24;;;;;;;2.80;1.95;;;;;;;19.08;91.36;101109.28;2929914;78;21018;-95
2022/10/06 08:09:26;;;;;;;4.47;2.12;;;;;;;19.06;91.75;101109.92;2945750;79;21002;-95
2022/10/06 08:13:27;;;;;;;1.95;1.35;;;;;;;19.13;93.20;101126.64;2979267;78;21021;-94
2022/10/06 08:17:29;;;;;;;5.62;3.08;;;;;;;19.10;91.24;101128.32;2970715;79;21010;-95
2022/10/06 08:21:35;;;;;;;4.72;2.77;;;;;;;19.16;93.08;101134.06;2969586;78;21057;-94
2022/10/06 08:25:42;;;;;;;5.75;2.30;;;;;;;19.37;92.25;101137.70;2989596;78;21065;-95
2022/10/06 08:29:43;;;;;;;5.30;2.47;;;;;;;;;;2991918;79;21336;-93
2022/10/06 08:33:46;;;;;;;2.62;2.08;;;;;;;19.72;90.46;101151.98;2989801;78;20990;-96
2022/10/06 08:37:47;;;;;;;4.35;2.65;;;;;;;19.78;89.55;101155.87;2964550;79;21010;-95
2022/10/06 08:41:52;;;;;;;2.85;2.10;;;;;;;19.83;88.52;101160.27;2963084;79;20954;-95
2022/10/06 08:45:58;;;;;;;2.93;2.53;;;;;;;20.10;87.85;101169.96;2991140;78;21045;-95
2022/10/06 08:50:03;;;;;;;2.62;2.12;;;;;;;19.93;85.82;101169.08;2971621;79;21002;-95
2022/10/06 08:54:28;;;;;;;2.85;2.27;;;;;;;19.81;88.74;101191.46;2969148;79;21049;-94
2022/10/06 08:58:53;;;;;;;3.87;1.60;;;;;;;19.84;87.63;101202.45;2985844;79;20978;-95
2022/10/06 09:02:55;;;;;;;3.20;1.85;;;;;;;19.74;87.11;101218.78;2987128;78;21728;-94
2022/10/06 09:07:12;;;;;;;3.72;1.72;;;;;;;19.45;88.30;101220.00;2990932;78;21058;-94
2022/10/06 09:11:37;;;;;;;3.33;2.35;;;;;;;19.36;91.13;101227.24;2990842;78;21037;-95
2022/10/06 09:15:48;;;;;;;4.67;2.30;;;;;;;19.36;91.31;101237.17;2993527;78;21014;-95
2022/10/06 09:20:03;;;;;;;5.20;2.92;;;;;;;19.25;90.58;101243.17;2991922;78;20998;-94
2022/10/06 09:24:17;;;;;;;4.83;1.53;;;;;;;18.85;91.04;101258.03;2961006;78;21034;-95
2022/10/06 09:28:19;;;;;;;8.58;0.95;;;;;;;18.55;81.92;101269.59;2997955;78;21033;-96
2022/10/06 09:32:23;;;;;;;2.27;0.85;;;;;;;18.36;81.09;101275.97;2997187;78;20979;-94
2022/10/06 09:36:25;;;;;;;1.82;1.05;;;;;;;18.28;81.89;101290.22;2994083;78;21002;-93
2022/10/06 09:40:43;;;;;;;2.65;0.90;;;;;;;18.18;83.07;101290.77;2988137;78;21276;-94
2022/10/06 09:45:00;;;;;;;3.15;0.78;;;;;;;18.11;83.89;101310.71;3027798;76;21032;-95
2022/10/06 09:49:19;;;;;;;3.00;0.80;;;;;;;18.11;84.16;101317.44;3088902;76;20925;-95
2022/10/06 09:53:21;;;;;;;0.78;0.50;;;;;;;18.05;83.89;101324.78;3057803;76;21528;-95
2022/10/06 09:57:26;;;;;;;3.85;0.93;;;;;;;17.92;80.02;101339.39;3059267;76;20964;-92
2022/10/06 10:01:31;;;;;;;2.10;0.68;;;;;;;17.76;78.96;101349.45;3026600;76;20960;-95
2022/10/06 10:05:39;;;;;;;2.67;0.72;;;;;;;17.69;76.10;101356.42;3057569;76;21047;-95
2022/10/06 10:09:41;;;;;;;1.00;0.40;;;;;;;17.59;76.53;101359.63;3058420;76;20987;-94
2022/10/06 10:13:43;;;;;;;1.07;0.82;;;;;;;17.48;76.79;101372.23;3006910;75;20960;-95
2022/10/06 10:17:52;;;;;;;0.93;0.60;;;;;;;17.46;77.76;101375.57;3047916;75;21034;-94
2022/10/06 10:21:55;;;;;;;2.42;0.88;;;;;;;17.35;77.69;101389.20;3066415;76;21023;-95
2022/10/06 10:26:20;;;;;;;2.02;0.42;;;;;;;17.36;77.56;101390.89;3042315;75;21006;-93
2022/10/06 10:30:22;;;;;;;3.60;0.85;;;;;;;17.21;77.41;101399.90;3077919;75;21050;-91
2022/10/06 10:35:21;;;;;;;2.67;0.75;;;;;;;17.12;80.82;101393.53;3052793;75;20990;-93
2022/10/06 10:39:49;;;;;;;5.50;0.82;;;;;;;17.16;81.59;101398.97;3039585;76;21005;-95
2022/10/06 10:43:55;;;;;;;0.60;0.40;;;;;;;17.15;82.58;101407.16;3068155;75;21019;-94
2022/10/06 10:48:00;;;;;;;2.12;0.30;;;;;;;16.89;82.96;101414.42;3050616;75;21297;-95
2022/10/06 10:52:22;;;;;;;2.87;0.47;;;;;;;16.96;81.66;101415.06;3075186;76;21004;-95
2022/10/06 10:56:25;;;;;;;3.52;0.62;;;;;;;17.11;82.83;101416.03;3053395;75;21523;-95
2022/10/06 11:00:34;;;;;;;2.08;0.88;;;;;;;17.24;83.31;101419.27;3075214;76;21582;-95
2022/10/06 11:04:32;;;;;;;;;;;;;;;17.40;80.76;101420.05;3074463;76;21057;-95
2022/10/06 11:08:54;;;;;;;0.88;0.75;;;;;;;17.49;81.78;101421.03;3048354;75;20181;-93
2022/10/06 11:13:24;;;;;;;1.62;0.45;;;;;;;17.55;81.72;101418.23;3072832;75;21451;-95
2022/10/06 11:17:49;;;;;;;1.20;0.20;;;;;;;17.69;82.51;101425.03;3046739;76;20971;-95
2022/10/06 11:22:00;;;;;;;2.15;1.07;;;;;;;17.58;82.10;101427.88;3036544;76;21569;-95
2022/10/06 11:26:48;;;;;;;2.02;0.88;;;;;;;17.75;84.83;101427.14;3027516;76;21052;-95
2022/10/06 11:31:13;;;;;;;2.27;0.70;;;;;;;17.93;86.69;101423.70;3005031;77;21080;-94
2022/10/06 11:35:27;;;;;;;3.27;0.85;;;;;;;18.08;82.71;101422.27;2984568;78;20987;-94
2022/10/06 11:39:59;;;;;;;1.25;0.60;;;;;;;18.26;79.18;101422.80;2971471;78;21002;-96
2022/10/06 11:44:40;;;;;;;3.72;2.15;;;;;;;18.27;79.87;101425.84;2963590;78;21053;-95
2022/10/06 11:48:42;;;;;;;2.10;0.50;;;;;;;18.15;80.07;101444.55;2964431;78;21041;-94
2022/10/06 11:52:45;;;;;;;4.00;0.50;;;;;;;17.95;82.40;101446.76;2940413;79;21050;-94
2022/10/06 11:56:47;;;;;;;3.47;1.27;;;;;;;17.93;81.71;101443.37;2933335;79;21026;-94
2022/10/06 12:00:49;;;;;;;1.25;0.55;;;;;;;17.93;81.49;101445.23;2912052;79;21037;-95
2022/10/06 12:05:20;;;;;;;3.33;1.67;;;;;;;17.88;81.97;101455.56;2949558;79;21073;-95
2022/10/06 12:09:32;;;;;;;1.77;0.40;;;;;;;17.93;83.30;101460.86;2969194;78;20999;-95
2022/10/06 12:13:43;;;;;;;2.42;1.00;;;;;;;17.89;80.62;101466.70;2961177;77;21977;-95
2022/10/06 12:18:08;;;;;;;2.25;0.88;;;;;;;17.90;81.00;101463.02;2994049;78;21486;-94
2022/10/06 12:22:36;;;;;;;1.03;0.47;;;;;;;17.73;80.09;101460.08;2967360;78;21021;-94
2022/10/06 12:26:49;;;;;;;2.58;0.57;;;;;;;17.91;81.23;101460.67;2978866;77;21059;-95
2022/10/06 12:31:29;;;;;;;2.27;0.80;;;;;;;18.08;78.36;101476.59;2962844;78;21300;-95
2022/10/06 12:35:36;;;;;;;2.52;0.70;;;;;;;18.16;78.03;101470.48;2865933;81;21107;-94
2022/10/06 12:39:37;;;;;;;1.55;0.62;;;;;;;18.30;77.12;101466.45;2858736;81;21026;-95
2022/10/06 12:43:54;;;;;;;1.87;1.05;;;;;;;18.30;77.46;101467.31;2860764;81;21068;-95
2022/10/06 12:47:56;;;;;;;4.08;1.05;;;;;;;18.32;79.45;101474.75;2861251;83;21025;-95
2022/10/06 12:52:05;;;;;;;2.62;1.05;;;;;;;18.27;74.86;101470.27;2830461;81;21037;-94
2022/10/06 12:56:13;;;;;;;1.10;1.00;;;;;;;18.43;77.29;101479.58;2864423;81;21581;-95
2022/10/06 13:00:33;;;;;;;4.83;1.75;;;;;;;18.31;73.95;101479.78;2881809;81;21057;-93
2022/10/06 13:04:54;;;;;;;5.42;1.25;;;;;;;18.59;78.12;101473.56;2855576;81;21044;-95
2022/10/06 13:09:12;;;;;;;2.62;0.82;;;;;;;18.65;75.53;101472.44;2903799;78;21065;-93
2022/10/06 13:13:23;;;;;;;5.60;1.00;;;;;;;18.63;74.72;101459.63;2963791;77;21049;-96
2022/10/06 13:17:24;;;;;;;3.27;1.12;;;;;;;18.72;74.39;101462.43;2987524;77;21059;-94
2022/10/06 13:21:29;;;;;;;1.22;0.68;;;;;;;18.81;76.23;101454.77;2974265;77;21082;-92
2022/10/06 13:25:44;;;;;;;2.87;0.88;;;;;;;18.87;74.46;101463.62;2981973;77;21071;-93
2022/10/06 13:29:48;;;;;;;0.93;0.70;;;;;;;18.87;74.16;101462.75;2990226;77;21860;-93
2022/10/06 13:34:03;;;;;;;2.15;0.82;;;;;;;19.02;74.52;101473.89;2989597;77;20980;-94
2022/10/06 13:38:05;;;;;;;3.30;1.25;;;;;;;19.09;74.95;101473.13;2985609;77;21063;-92
2022/10/06 13:42:15;;;;;;;2.72;0.93;;;;;;;19.12;74.41;101472.81;2958802;77;21062;-96
2022/10/06 13:46:21;;;;;;;1.30;0.78;;;;;;;19.06;72.13;101476.14;2987529;77;20987;-96
2022/10/06 13:50:22;;;;;;;9.05;1.20;;;;;;;18.95;72.72;101477.17;3045300;76;21110;-96
2022/10/06 13:54:32;;;;;;;2.72;1.32;;;;;;;18.92;72.28;101476.13;3097512;76;21035;-96
2022/10/06 13:58:34;;;;;;;3.47;0.72;;;;;;;18.98;74.07;101480.94;3041988;76;21031;-93
2022/10/06 14:02:37;;;;;;;6.97;1.35;;;;;;;18.96;73.22;101482.05;3083532;76;20986;-96
2022/10/06 14:06:48;;;;;;;3.42;1.42;;;;;;;18.98;71.99;101484.98;2991888;77;20994;-96
2022/10/06 14:10:54;;;;;;;7.85;1.25;;;;;;;18.96;71.65;101469.43;3030492;75;21349;-96
2022/10/06 14:14:56;;;;;;;4.17;1.77;;;;;;;19.01;71.98;101478.94;3025102;76;21228;-96
2022/10/06 14:19:04;;;;;;;1.98;1.20;;;;;;;19.05;72.27;101484.36;3028663;77;21026;-96
2022/10/06 14:23:48;;;;;;;3.55;1.62;;;;;;;19.12;72.31;101479.56;3025642;76;21003;-96
2022/10/06 14:27:51;;;;;;;1.05;0.75;;;;;;;19.12;72.69;101486.82;3071207;76;20968;-96
2022/10/06 14:31:52;;;;;;;3.35;1.15;;;;;;;19.20;73.52;101488.75;3035359;76;20939;-96
2022/10/06 14:35:54;;;;;;;2.58;0.88;;;;;;;19.21;71.95;101491.28;3086709;75;20924;-96
2022/10/06 14:39:55;;;;;;;0.72;0.57;;;;;;;19.20;72.68;101496.33;3016750;77;20968;-96
2022/10/06 14:44:00;;;;;;;5.28;1.02;;;;;;;19.17;71.78;101497.16;3062794;76;21000;-96
2022/10/06 14:48:03;;;;;;;1.67;0.93;;;;;;;19.12;71.29;101497.60;3059690;76;20964;-96
2022/10/06 14:52:07;;;;;;;4.28;1.45;;;;;;;19.10;71.52;101497.75;3006732;76;20967;-93
2022/10/06 14:56:12;;;;;;;1.77;0.98;;;;;;;19.04;72.53;101491.63;3074817;76;21009;-96
2022/10/06 15:00:15;;;;;;;3.02;0.93;;;;;;;18.92;70.51;101503.09;3060477;76;20964;-96
2022/10/06 15:04:21;;;;;;;9.35;1.02;;;;;;;18.98;71.54;101509.73;3058917;76;20964;-95
2022/10/06 15:08:22;;;;;;;2.17;0.62;;;;;;;18.90;70.50;101509.14;3054979;76;20988;-96
2022/10/06 15:12:23;;;;;;;1.15;0.65;;;;;;;18.91;71.28;101513.53;2992136;77;21018;-96
2022/10/06 15:16:28;;;;;;;1.90;1.02;;;;;;;18.86;71.78;101515.80;2980836;77;21007;-94
2022/10/06 15:20:29;;;;;;;5.60;1.65;;;;;;;18.78;73.18;101504.94;3058800;76;21026;-96
2022/10/06 15:24:31;;;;;;;3.15;1.10;;;;;;;18.67;72.74;101507.34;2974696;77;20982;-96
2022/10/06 15:32:52;;;;;;;4.45;1.55;;;;;;;18.43;74.92;101520.84;3036424;76;21006;-96
2022/10/06 15:36:55;;;;;;;12.50;1.52;;;;;;;18.31;74.37;101521.53;3043345;76;20956;-96
2022/10/06 15:41:03;;;;;;;2.90;0.78;;;;;;;18.19;73.35;101530.77;3060219;76;20960;-96
2022/10/06 16:00:15;;;;;;;2.17;1.20;;;;;;;17.99;77.18;101534.81;3118826;74;22811;-94
2022/10/06 16:08:35;;;;;;;6.90;1.72;;;;;;;17.76;77.07;101545.89;3061892;75;21451;-94
2022/10/06 16:12:36;;;;;;;5.75;1.25;;;;;;;17.61;77.19;101549.99;3076914;75;21022;-94
2022/10/06 16:16:38;;;;;;;3.52;1.10;;;;;;;17.30;78.15;101550.12;3086534;75;20991;-94
2022/10/06 16:20:40;;;;;;;5.97;1.57;;;;;;;17.10;78.02;101557.64;3024748;75;20995;-94
2022/10/06 16:24:41;;;;;;;3.33;1.25;;;;;;;16.95;78.63;101559.84;3072495;75;20976;-92
2022/10/06 16:28:43;;;;;;;3.50;2.33;;;;;;;16.73;78.21;101568.94;3068457;75;20983;-95
2022/10/06 16:32:44;;;;;;;5.10;2.80;;;;;;;16.56;78.85;101570.43;3077793;75;20924;-93
2022/10/06 16:36:46;;;;;;;3.85;2.20;;;;;;;16.42;79.35;101571.63;3090128;75;20995;-94
2022/10/06 16:41:02;;;;;;;9.40;3.72;;;;;;;16.30;79.88;101573.52;3066427;75;21023;-96
2022/10/06 16:45:04;;;;;;;2.45;1.77;;;;;;;16.18;79.82;101578.62;3100798;75;20994;-92
2022/10/06 16:49:08;;;;;;;5.60;2.85;;;;;;;16.07;79.85;101587.08;3083024;75;21022;-92
2022/10/06 16:53:09;;;;;;;4.20;1.20;;;;;;;15.99;79.62;101588.23;3087544;75;20929;-91
2022/10/06 16:57:15;;;;;;;3.30;1.60;;;;;;;15.90;79.56;101593.02;3069791;76;21065;-93
2022/10/06 17:01:25;;;;;;;2.80;1.98;;;;;;;15.78;79.79;101596.20;3020585;74;21027;-95
2022/10/06 17:05:27;;;;;;;3.65;1.70;;;;;;;15.65;80.34;101603.95;3086272;75;21086;-96
2022/10/06 17:09:29;;;;;;;6.45;2.20;;;;;;;15.59;80.34;101614.33;3078288;75;20995;-94
2022/10/06 17:13:31;;;;;;;6.53;3.30;;;;;;;15.50;80.69;101611.41;3046702;76;21125;-95
2022/10/06 17:17:32;;;;;;;11.63;3.42;;;;;;;15.42;80.91;101615.22;3040925;74;21074;-95
2022/10/06 17:21:33;;;;;;;8.40;2.70;;;;;;;15.34;81.39;101627.90;3083132;75;20929;-95
2022/10/06 17:25:35;;;;;;;7.75;2.95;;;;;;;15.27;81.09;101630.22;3087309;76;21039;-94
2022/10/06 17:29:36;;;;;;;7.22;3.35;;;;;;;15.23;81.18;101630.58;3039940;76;21046;-95
2022/10/06 17:33:41;;;;;;;7.08;3.60;;;;;;;15.11;81.90;101627.92;3076512;76;20988;-96
2022/10/06 17:37:42;;;;;;;48.45;18.85;;;;;;;14.87;83.13;101626.70;3080420;75;21003;-93
2022/10/06 17:41:45;;;;;;;77.90;36.63;;;;;;;14.62;85.17;101635.77;3085285;76;21033;-94
2022/10/06 17:45:46;;;;;;;66.92;37.13;;;;;;;14.43;85.62;101634.05;3079466;76;20978;-92
2022/10/06 17:49:47;;;;;;;54.65;27.85;;;;;;;14.38;86.03;101635.36;3032922;76;21030;-91
2022/10/06 17:53:55;;;;;;;60.28;35.80;;;;;;;14.37;86.17;101633.19;2883053;77;21061;-90
2022/10/06 17:57:57;;;;;;;57.55;35.58;;;;;;;14.35;86.24;101630.25;3065963;76;21038;-89
2022/10/06 18:02:01;;;;;;;40.45;23.25;;;;;;;14.27;86.43;101634.38;3076780;76;21365;-92
2022/10/06 18:06:04;;;;;;;25.77;18.25;;;;;;;14.27;86.54;101638.86;3073715;74;21071;-93
2022/10/06 18:14:32;;;;;;;34.95;20.05;;;;;;;14.24;85.91;101657.83;3084923;76;21006;-94
2022/10/06 18:18:33;;;;;;;17.98;11.48;;;;;;;14.18;85.77;101643.59;3072450;76;20991;-91
2022/10/06 18:22:34;;;;;;;13.68;10.18;;;;;;;14.11;86.00;101649.38;3080572;76;20964;-90
2022/10/06 18:26:37;;;;;;;15.20;8.88;;;;;;;14.06;86.23;101652.06;3089925;75;20960;-90
2022/10/06 18:30:38;;;;;;;10.43;7.37;;;;;;;13.99;85.74;101657.84;3086535;76;20931;-92
2022/10/06 18:34:39;;;;;;;9.98;6.10;;;;;;;13.90;85.76;101657.69;3088380;75;20960;-91
2022/10/06 18:38:44;;;;;;;14.75;7.03;;;;;;;13.76;85.99;101658.23;3081356;75;21038;-91
2022/10/06 18:42:45;;;;;;;8.35;5.72;;;;;;;13.65;86.67;101667.02;3067697;76;20968;-91
2022/10/06 18:51:06;;;;;;;10.93;5.90;;;;;;;13.47;87.96;101675.07;3065665;76;20994;-94
2022/10/06 18:55:07;;;;;;;11.55;5.08;;;;;;;13.43;88.11;101673.09;3076347;76;20936;-92
2022/10/06 18:59:12;;;;;;;12.05;5.83;;;;;;;13.39;88.18;101672.91;2991687;78;21038;-92
2022/10/06 19:03:14;;;;;;;7.50;5.60;;;;;;;13.36;88.38;101679.78;3072912;76;21007;-91
2022/10/06 19:07:15;;;;;;;10.32;6.50;;;;;;;13.35;88.62;101685.63;3062082;76;21030;-91
2022/10/06 19:15:37;;;;;;;10.25;7.15;;;;;;;13.23;88.86;101683.83;3038568;75;20979;-95
2022/10/06 19:19:38;;;;;;;10.45;5.85;;;;;;;13.16;89.24;101687.41;3055405;76;20984;-93
2022/10/06 19:23:40;;;;;;;8.30;6.60;;;;;;;13.09;89.61;101689.68;3060940;76;20975;-94
2022/10/06 19:27:41;;;;;;;17.48;5.70;;;;;;;13.06;89.71;101694.37;3051233;76;21577;-96
2022/10/06 19:31:46;;;;;;;8.80;5.20;;;;;;;13.06;89.45;101689.03;3055315;76;21109;-95
2022/10/06 19:35:53;;;;;;;8.38;6.28;;;;;;;13.03;89.16;101690.09;3035393;76;20982;-93
2022/10/06 19:39:54;;;;;;;9.90;5.08;;;;;;;12.95;89.52;101702.64;3059469;76;20988;-94
2022/10/06 19:43:56;;;;;;;8.75;5.22;;;;;;;12.91;89.23;101701.65;3051038;74;20906;-95
2022/10/06 19:47:57;;;;;;;10.00;6.70;;;;;;;12.76;89.05;101702.20;3063430;76;20987;-94
2022/10/06 19:52:01;;;;;;;25.50;16.65;;;;;;;12.61;90.39;101704.11;3052848;76;20983;-92
2022/10/06 19:56:03;;;;;;;18.95;10.60;;;;;;;12.56;90.91;101711.09;3038602;76;21038;-95
2022/10/06 20:00:06;;;;;;;16.70;11.33;;;;;;;12.47;90.94;101715.23;3060900;75;21030;-96